sensor_id;sensor_type;location;lat;lon;timestamp;temperature;humidity
11188;DHT22;5650;52.700;7.306;2023-02-13T00:01:09;8.40;99.90
11188;DHT22;5650;52.700;7.306;2023-02-13T00:03:36;8.40;99.90
11188;DHT22;5650;52.700;7.306;2023-02-13T00:06:04;8.40;99.90
11188;DHT22;5650;52.700;7.306;2023-02-13T00:08:31;8.30;99.90
11188;DHT22;5650;52.700;7.306;2023-02-13T00:11:01;8.30;99.90
11188;DHT22;5650;52.700;7.306;2023-02-13T00:13:33;8.30;99.90
11188;DHT22;5650;52.700;7.306;2023-02-13T00:16:03;8.30;99.90
11188;DHT22;5650;52.700;7.306;2023-02-13T00:18:36;8.30;99.90
11188;DHT22;5650;52.700;7.306;2023-02-13T00:21:05;8.30;99.90
11188;DHT22;5650;52.700;7.306;2023-02-13T00:23:34;8.30;99.90
11188;DHT22;5650;52.700;7.306;2023-02-13T00:26:05;8.30;99.90
11188;DHT22;5650;52.700;7.306;2023-02-13T00:28:34;8.20;99.90
11188;DHT22;5650;52.700;7.306;2023-02-13T00:31:03;8.20;99.90
11188;DHT22;5650;52.700;7.306;2023-02-13T00:33:30;8.20;99.90
11188;DHT22;5650;52.700;7.306;2023-02-13T00:36:05;8.20;99.90
11188;DHT22;5650;52.700;7.306;2023-02-13T00:38:33;8.20;99.90
11188;DHT22;5650;52.700;7.306;2023-02-13T00:41:00;8.20;99.90
11188;DHT22;5650;52.700;7.306;2023-02-13T00:43:27;8.20;99.90
11188;DHT22;5650;52.700;7.306;2023-02-13T00:45:59;8.20;99.90
11188;DHT22;5650;52.700;7.306;2023-02-13T00:48:28;8.20;99.90
11188;DHT22;5650;52.700;7.306;2023-02-13T00:50:58;8.20;99.90
11188;DHT22;5650;52.700;7.306;2023-02-13T00:53:26;8.20;99.90
11188;DHT22;5650;52.700;7.306;2023-02-13T00:55:53;8.20;99.90
11188;DHT22;5650;52.700;7.306;2023-02-13T00:58:20;8.20;99.90
11188;DHT22;5650;52.700;7.306;2023-02-13T01:00:48;8.20;99.90
11188;DHT22;5650;52.700;7.306;2023-02-13T01:03:19;8.20;99.90
11188;DHT22;5650;52.700;7.306;2023-02-13T01:05:47;8.10;99.90
11188;DHT22;5650;52.700;7.306;2023-02-13T01:08:15;8.20;99.90
11188;DHT22;5650;52.700;7.306;2023-02-13T01:10:45;8.20;99.90
11188;DHT22;5650;52.700;7.306;2023-02-13T01:13:13;8.10;99.90
11188;DHT22;5650;52.700;7.306;2023-02-13T01:15:40;8.10;99.90
11188;DHT22;5650;52.700;7.306;2023-02-13T01:18:12;8.20;99.90
11188;DHT22;5650;52.700;7.306;2023-02-13T01:20:42;8.10;99.90
11188;DHT22;5650;52.700;7.306;2023-02-13T01:23:10;8.10;99.90
11188;DHT22;5650;52.700;7.306;2023-02-13T01:25:39;8.10;99.90
11188;DHT22;5650;52.700;7.306;2023-02-13T01:28:06;8.10;99.90
11188;DHT22;5650;52.700;7.306;2023-02-13T01:30:34;8.10;99.90
11188;DHT22;5650;52.700;7.306;2023-02-13T01:33:03;8.10;99.90
11188;DHT22;5650;52.700;7.306;2023-02-13T01:35:33;8.10;99.90
11188;DHT22;5650;52.700;7.306;2023-02-13T01:38:05;8.10;99.90
11188;DHT22;5650;52.700;7.306;2023-02-13T01:40:32;8.10;99.90
11188;DHT22;5650;52.700;7.306;2023-02-13T01:42:59;8.10;99.90
11188;DHT22;5650;52.700;7.306;2023-02-13T01:45:28;8.10;99.90
11188;DHT22;5650;52.700;7.306;2023-02-13T01:47:58;8.10;99.90
11188;DHT22;5650;52.700;7.306;2023-02-13T01:50:30;8.10;99.90
11188;DHT22;5650;52.700;7.306;2023-02-13T01:53:03;8.10;99.90
11188;DHT22;5650;52.700;7.306;2023-02-13T01:55:36;8.10;99.90
11188;DHT22;5650;52.700;7.306;2023-02-13T01:58:08;8.10;99.90
11188;DHT22;5650;52.700;7.306;2023-02-13T02:00:37;8.10;99.90
11188;DHT22;5650;52.700;7.306;2023-02-13T02:03:08;8.10;99.90
11188;DHT22;5650;52.700;7.306;2023-02-13T02:05:39;8.10;99.90
11188;DHT22;5650;52.700;7.306;2023-02-13T02:08:09;8.20;99.90
11188;DHT22;5650;52.700;7.306;2023-02-13T02:10:40;8.20;99.90
11188;DHT22;5650;52.700;7.306;2023-02-13T02:13:10;8.20;99.90
11188;DHT22;5650;52.700;7.306;2023-02-13T02:15:40;8.20;99.90
11188;DHT22;5650;52.700;7.306;2023-02-13T02:18:12;8.10;99.90
11188;DHT22;5650;52.700;7.306;2023-02-13T02:21:26;8.10;99.90
11188;DHT22;5650;52.700;7.306;2023-02-13T02:27:37;8.10;99.90
11188;DHT22;5650;52.700;7.306;2023-02-13T02:33:17;8.10;99.90
11188;DHT22;5650;52.700;7.306;2023-02-13T02:35:53;8.10;99.90
11188;DHT22;5650;52.700;7.306;2023-02-13T02:38:37;8.10;99.90
11188;DHT22;5650;52.700;7.306;2023-02-13T02:41:19;8.10;99.90
11188;DHT22;5650;52.700;7.306;2023-02-13T02:44:14;8.10;99.90
11188;DHT22;5650;52.700;7.306;2023-02-13T02:46:55;8.10;99.90
11188;DHT22;5650;52.700;7.306;2023-02-13T02:49:40;8.10;99.90
11188;DHT22;5650;52.700;7.306;2023-02-13T02:52:34;8.10;99.90
11188;DHT22;5650;52.700;7.306;2023-02-13T02:55:12;8.10;99.90
11188;DHT22;5650;52.700;7.306;2023-02-13T02:57:47;8.10;99.90
11188;DHT22;5650;52.700;7.306;2023-02-13T03:00:36;8.10;99.90
11188;DHT22;5650;52.700;7.306;2023-02-13T03:03:37;8.10;99.90
11188;DHT22;5650;52.700;7.306;2023-02-13T03:06:26;8.10;99.90
11188;DHT22;5650;52.700;7.306;2023-02-13T03:08:57;8.10;99.90
11188;DHT22;5650;52.700;7.306;2023-02-13T03:11:46;8.10;99.90
11188;DHT22;5650;52.700;7.306;2023-02-13T03:14:32;8.10;99.90
11188;DHT22;5650;52.700;7.306;2023-02-13T03:17:00;8.10;99.90
11188;DHT22;5650;52.700;7.306;2023-02-13T03:19:55;8.10;99.90
11188;DHT22;5650;52.700;7.306;2023-02-13T03:22:52;8.10;99.90
11188;DHT22;5650;52.700;7.306;2023-02-13T03:25:29;8.10;99.90
11188;DHT22;5650;52.700;7.306;2023-02-13T03:28:14;8.10;99.90
11188;DHT22;5650;52.700;7.306;2023-02-13T03:31:07;8.10;99.90
11188;DHT22;5650;52.700;7.306;2023-02-13T03:33:53;8.10;99.90
11188;DHT22;5650;52.700;7.306;2023-02-13T03:36:29;8.10;99.90
11188;DHT22;5650;52.700;7.306;2023-02-13T03:39:19;8.10;99.90
11188;DHT22;5650;52.700;7.306;2023-02-13T03:41:51;8.10;99.90
11188;DHT22;5650;52.700;7.306;2023-02-13T03:44:25;8.10;99.90
11188;DHT22;5650;52.700;7.306;2023-02-13T03:46:57;8.00;99.90
11188;DHT22;5650;52.700;7.306;2023-02-13T03:49:30;8.00;99.90
11188;DHT22;5650;52.700;7.306;2023-02-13T03:52:21;8.00;99.90
11188;DHT22;5650;52.700;7.306;2023-02-13T03:54:54;8.10;99.90
11188;DHT22;5650;52.700;7.306;2023-02-13T03:57:41;8.10;99.90
11188;DHT22;5650;52.700;7.306;2023-02-13T04:00:28;8.10;99.90
11188;DHT22;5650;52.700;7.306;2023-02-13T04:03:02;8.10;99.90
11188;DHT22;5650;52.700;7.306;2023-02-13T04:05:35;8.10;99.90
11188;DHT22;5650;52.700;7.306;2023-02-13T04:08:04;8.00;99.90
11188;DHT22;5650;52.700;7.306;2023-02-13T04:10:35;8.00;99.90
11188;DHT22;5650;52.700;7.306;2023-02-13T04:13:09;8.00;99.90
11188;DHT22;5650;52.700;7.306;2023-02-13T04:15:41;8.00;99.90
11188;DHT22;5650;52.700;7.306;2023-02-13T04:18:13;8.00;99.90
11188;DHT22;5650;52.700;7.306;2023-02-13T04:20:41;8.00;99.90
11188;DHT22;5650;52.700;7.306;2023-02-13T04:23:10;8.00;99.90
11188;DHT22;5650;52.700;7.306;2023-02-13T04:25:41;8.00;99.90
11188;DHT22;5650;52.700;7.306;2023-02-13T04:28:09;8.00;99.90
11188;DHT22;5650;52.700;7.306;2023-02-13T04:30:37;8.00;99.90
11188;DHT22;5650;52.700;7.306;2023-02-13T04:33:05;8.00;99.90
11188;DHT22;5650;52.700;7.306;2023-02-13T04:35:34;8.00;99.90
11188;DHT22;5650;52.700;7.306;2023-02-13T04:38:02;8.00;99.90
11188;DHT22;5650;52.700;7.306;2023-02-13T04:40:32;8.00;99.90
11188;DHT22;5650;52.700;7.306;2023-02-13T04:43:01;8.00;99.90
11188;DHT22;5650;52.700;7.306;2023-02-13T04:45:28;8.00;99.90
11188;DHT22;5650;52.700;7.306;2023-02-13T04:47:56;8.00;99.90
11188;DHT22;5650;52.700;7.306;2023-02-13T04:50:24;8.00;99.90
11188;DHT22;5650;52.700;7.306;2023-02-13T04:52:53;7.90;99.90
11188;DHT22;5650;52.700;7.306;2023-02-13T04:55:20;7.90;99.90
11188;DHT22;5650;52.700;7.306;2023-02-13T04:57:51;7.90;99.90
11188;DHT22;5650;52.700;7.306;2023-02-13T05:00:22;7.90;99.90
11188;DHT22;5650;52.700;7.306;2023-02-13T05:02:49;7.90;99.90
11188;DHT22;5650;52.700;7.306;2023-02-13T05:05:17;8.00;99.90
11188;DHT22;5650;52.700;7.306;2023-02-13T05:07:52;8.00;99.90
11188;DHT22;5650;52.700;7.306;2023-02-13T05:10:19;8.00;99.90
11188;DHT22;5650;52.700;7.306;2023-02-13T05:12:47;8.00;99.90
11188;DHT22;5650;52.700;7.306;2023-02-13T05:15:14;7.90;99.90
11188;DHT22;5650;52.700;7.306;2023-02-13T05:17:44;7.90;99.90
11188;DHT22;5650;52.700;7.306;2023-02-13T05:20:12;7.90;99.90
11188;DHT22;5650;52.700;7.306;2023-02-13T05:22:43;7.90;99.90
11188;DHT22;5650;52.700;7.306;2023-02-13T05:25:33;7.90;99.90
11188;DHT22;5650;52.700;7.306;2023-02-13T05:28:00;7.90;99.90
11188;DHT22;5650;52.700;7.306;2023-02-13T05:30:28;7.90;99.90
11188;DHT22;5650;52.700;7.306;2023-02-13T05:32:57;7.80;99.90
11188;DHT22;5650;52.700;7.306;2023-02-13T05:35:24;7.90;99.90
11188;DHT22;5650;52.700;7.306;2023-02-13T05:37:51;7.90;99.90
11188;DHT22;5650;52.700;7.306;2023-02-13T05:40:18;7.90;99.90
11188;DHT22;5650;52.700;7.306;2023-02-13T05:42:46;7.90;99.90
11188;DHT22;5650;52.700;7.306;2023-02-13T05:45:13;7.90;99.90
11188;DHT22;5650;52.700;7.306;2023-02-13T05:47:40;7.90;99.90
11188;DHT22;5650;52.700;7.306;2023-02-13T05:50:09;7.90;99.90
11188;DHT22;5650;52.700;7.306;2023-02-13T05:52:37;7.90;99.90
11188;DHT22;5650;52.700;7.306;2023-02-13T05:55:04;7.90;99.90
11188;DHT22;5650;52.700;7.306;2023-02-13T05:57:32;7.90;99.90
11188;DHT22;5650;52.700;7.306;2023-02-13T05:59:59;7.80;99.90
11188;DHT22;5650;52.700;7.306;2023-02-13T06:02:26;7.80;99.90
11188;DHT22;5650;52.700;7.306;2023-02-13T06:04:53;7.90;99.90
11188;DHT22;5650;52.700;7.306;2023-02-13T06:07:22;7.90;99.90
11188;DHT22;5650;52.700;7.306;2023-02-13T06:09:49;7.90;99.90
11188;DHT22;5650;52.700;7.306;2023-02-13T06:12:16;7.90;99.90
11188;DHT22;5650;52.700;7.306;2023-02-13T06:14:44;7.90;99.90
11188;DHT22;5650;52.700;7.306;2023-02-13T06:17:11;7.80;99.90
11188;DHT22;5650;52.700;7.306;2023-02-13T06:19:38;7.80;99.90
11188;DHT22;5650;52.700;7.306;2023-02-13T06:22:05;7.80;99.90
11188;DHT22;5650;52.700;7.306;2023-02-13T06:24:34;7.80;99.90
11188;DHT22;5650;52.700;7.306;2023-02-13T06:27:01;7.80;99.90
11188;DHT22;5650;52.700;7.306;2023-02-13T06:29:28;7.80;99.90
11188;DHT22;5650;52.700;7.306;2023-02-13T06:31:56;7.80;99.90
11188;DHT22;5650;52.700;7.306;2023-02-13T06:34:23;7.80;99.90
11188;DHT22;5650;52.700;7.306;2023-02-13T06:36:50;7.80;99.90
11188;DHT22;5650;52.700;7.306;2023-02-13T06:39:17;7.80;99.90
11188;DHT22;5650;52.700;7.306;2023-02-13T06:41:46;7.80;99.90
11188;DHT22;5650;52.700;7.306;2023-02-13T06:44:13;7.80;99.90
11188;DHT22;5650;52.700;7.306;2023-02-13T06:46:40;7.80;99.90
11188;DHT22;5650;52.700;7.306;2023-02-13T06:49:08;7.80;99.90
11188;DHT22;5650;52.700;7.306;2023-02-13T06:51:35;7.80;99.90
11188;DHT22;5650;52.700;7.306;2023-02-13T06:54:03;7.80;99.90
11188;DHT22;5650;52.700;7.306;2023-02-13T06:56:30;7.80;99.90
11188;DHT22;5650;52.700;7.306;2023-02-13T06:58:59;7.80;99.90
11188;DHT22;5650;52.700;7.306;2023-02-13T07:01:26;7.80;99.90
11188;DHT22;5650;52.700;7.306;2023-02-13T07:03:53;7.80;99.90
11188;DHT22;5650;52.700;7.306;2023-02-13T07:06:21;7.80;99.90
11188;DHT22;5650;52.700;7.306;2023-02-13T07:08:48;7.80;99.90
11188;DHT22;5650;52.700;7.306;2023-02-13T07:11:20;7.80;99.90
11188;DHT22;5650;52.700;7.306;2023-02-13T07:13:48;7.80;99.90
11188;DHT22;5650;52.700;7.306;2023-02-13T07:16:16;7.80;99.90
11188;DHT22;5650;52.700;7.306;2023-02-13T07:18:44;7.80;99.90
11188;DHT22;5650;52.700;7.306;2023-02-13T07:21:11;7.80;99.90
11188;DHT22;5650;52.700;7.306;2023-02-13T07:23:38;7.80;99.90
11188;DHT22;5650;52.700;7.306;2023-02-13T07:26:06;7.80;99.90
11188;DHT22;5650;52.700;7.306;2023-02-13T07:28:33;7.80;99.90
11188;DHT22;5650;52.700;7.306;2023-02-13T07:31:17;7.80;99.90
11188;DHT22;5650;52.700;7.306;2023-02-13T07:33:47;7.90;99.90
11188;DHT22;5650;52.700;7.306;2023-02-13T07:36:15;7.90;99.90
11188;DHT22;5650;52.700;7.306;2023-02-13T07:38:44;7.90;99.90
11188;DHT22;5650;52.700;7.306;2023-02-13T07:41:12;7.90;99.90
11188;DHT22;5650;52.700;7.306;2023-02-13T07:43:39;7.90;99.90
11188;DHT22;5650;52.700;7.306;2023-02-13T07:46:06;7.90;99.90
11188;DHT22;5650;52.700;7.306;2023-02-13T07:48:38;7.90;99.90
11188;DHT22;5650;52.700;7.306;2023-02-13T07:51:07;7.90;99.90
11188;DHT22;5650;52.700;7.306;2023-02-13T07:53:38;7.90;99.90
11188;DHT22;5650;52.700;7.306;2023-02-13T07:56:06;7.90;99.90
11188;DHT22;5650;52.700;7.306;2023-02-13T07:58:37;7.90;99.90
11188;DHT22;5650;52.700;7.306;2023-02-13T08:01:06;7.90;99.90
11188;DHT22;5650;52.700;7.306;2023-02-13T08:03:33;7.90;99.90
11188;DHT22;5650;52.700;7.306;2023-02-13T08:06:08;7.90;99.90
11188;DHT22;5650;52.700;7.306;2023-02-13T08:08:39;7.90;99.90
11188;DHT22;5650;52.700;7.306;2023-02-13T08:11:11;7.90;99.90
11188;DHT22;5650;52.700;7.306;2023-02-13T08:14:03;7.90;99.90
11188;DHT22;5650;52.700;7.306;2023-02-13T08:16:31;7.90;99.90
11188;DHT22;5650;52.700;7.306;2023-02-13T08:18:58;8.00;99.90
11188;DHT22;5650;52.700;7.306;2023-02-13T08:21:29;8.00;99.90
11188;DHT22;5650;52.700;7.306;2023-02-13T08:23:57;8.00;99.90
11188;DHT22;5650;52.700;7.306;2023-02-13T08:26:24;8.00;99.90
11188;DHT22;5650;52.700;7.306;2023-02-13T08:28:52;8.10;99.90
11188;DHT22;5650;52.700;7.306;2023-02-13T08:31:22;8.10;99.90
11188;DHT22;5650;52.700;7.306;2023-02-13T08:33:56;8.10;99.90
11188;DHT22;5650;52.700;7.306;2023-02-13T08:36:26;8.10;99.90
11188;DHT22;5650;52.700;7.306;2023-02-13T08:38:55;8.10;99.90
11188;DHT22;5650;52.700;7.306;2023-02-13T08:41:25;8.10;99.90
11188;DHT22;5650;52.700;7.306;2023-02-13T08:43:53;8.10;99.90
11188;DHT22;5650;52.700;7.306;2023-02-13T08:46:20;8.10;99.90
11188;DHT22;5650;52.700;7.306;2023-02-13T08:48:51;8.20;99.90
11188;DHT22;5650;52.700;7.306;2023-02-13T08:51:18;8.20;99.90
11188;DHT22;5650;52.700;7.306;2023-02-13T08:53:45;8.30;99.90
11188;DHT22;5650;52.700;7.306;2023-02-13T08:56:14;8.30;99.90
11188;DHT22;5650;52.700;7.306;2023-02-13T08:58:42;8.40;99.90
11188;DHT22;5650;52.700;7.306;2023-02-13T09:01:11;8.40;99.90
11188;DHT22;5650;52.700;7.306;2023-02-13T09:03:38;8.40;99.90
11188;DHT22;5650;52.700;7.306;2023-02-13T09:06:11;8.50;99.90
11188;DHT22;5650;52.700;7.306;2023-02-13T09:08:42;8.50;99.90
11188;DHT22;5650;52.700;7.306;2023-02-13T09:11:09;8.50;99.90
11188;DHT22;5650;52.700;7.306;2023-02-13T09:13:38;8.60;99.90
11188;DHT22;5650;52.700;7.306;2023-02-13T09:16:06;8.60;99.90
11188;DHT22;5650;52.700;7.306;2023-02-13T09:18:37;8.70;99.90
11188;DHT22;5650;52.700;7.306;2023-02-13T09:21:06;8.70;99.90
11188;DHT22;5650;52.700;7.306;2023-02-13T09:23:36;8.70;99.90
11188;DHT22;5650;52.700;7.306;2023-02-13T09:26:05;8.70;99.90
11188;DHT22;5650;52.700;7.306;2023-02-13T09:28:33;8.70;99.90
11188;DHT22;5650;52.700;7.306;2023-02-13T09:31:05;8.80;99.90
11188;DHT22;5650;52.700;7.306;2023-02-13T09:33:33;8.80;99.90
11188;DHT22;5650;52.700;7.306;2023-02-13T09:36:03;8.80;99.90
11188;DHT22;5650;52.700;7.306;2023-02-13T09:38:31;8.80;99.90
11188;DHT22;5650;52.700;7.306;2023-02-13T09:41:01;8.90;99.90
11188;DHT22;5650;52.700;7.306;2023-02-13T09:43:30;8.90;99.90
11188;DHT22;5650;52.700;7.306;2023-02-13T09:46:00;8.90;99.90
11188;DHT22;5650;52.700;7.306;2023-02-13T09:48:35;9.00;99.90
11188;DHT22;5650;52.700;7.306;2023-02-13T09:51:03;9.00;99.90
11188;DHT22;5650;52.700;7.306;2023-02-13T09:53:31;9.10;99.90
11188;DHT22;5650;52.700;7.306;2023-02-13T09:56:08;9.10;99.90
11188;DHT22;5650;52.700;7.306;2023-02-13T09:58:41;9.10;99.90
11188;DHT22;5650;52.700;7.306;2023-02-13T10:01:25;9.20;99.90
11188;DHT22;5650;52.700;7.306;2023-02-13T10:04:20;9.20;99.90
11188;DHT22;5650;52.700;7.306;2023-02-13T10:06:56;9.30;99.90
11188;DHT22;5650;52.700;7.306;2023-02-13T10:09:29;9.30;99.90
11188;DHT22;5650;52.700;7.306;2023-02-13T10:12:11;9.30;99.90
11188;DHT22;5650;52.700;7.306;2023-02-13T10:14:44;9.40;99.90
11188;DHT22;5650;52.700;7.306;2023-02-13T10:17:18;9.40;99.90
11188;DHT22;5650;52.700;7.306;2023-02-13T10:19:50;9.40;99.90
11188;DHT22;5650;52.700;7.306;2023-02-13T10:22:27;9.50;99.90
11188;DHT22;5650;52.700;7.306;2023-02-13T10:24:58;9.50;99.90
11188;DHT22;5650;52.700;7.306;2023-02-13T10:27:31;9.60;99.90
11188;DHT22;5650;52.700;7.306;2023-02-13T10:30:04;9.60;99.90
11188;DHT22;5650;52.700;7.306;2023-02-13T10:32:53;9.60;99.90
11188;DHT22;5650;52.700;7.306;2023-02-13T10:35:37;9.70;99.90
11188;DHT22;5650;52.700;7.306;2023-02-13T10:38:13;9.70;99.90
11188;DHT22;5650;52.700;7.306;2023-02-13T10:41:02;9.80;99.90
11188;DHT22;5650;52.700;7.306;2023-02-13T10:43:37;9.80;99.90
11188;DHT22;5650;52.700;7.306;2023-02-13T10:46:10;9.80;99.90
11188;DHT22;5650;52.700;7.306;2023-02-13T10:48:49;9.80;99.90
11188;DHT22;5650;52.700;7.306;2023-02-13T10:51:29;9.90;99.90
11188;DHT22;5650;52.700;7.306;2023-02-13T10:54:16;10.00;99.90
11188;DHT22;5650;52.700;7.306;2023-02-13T10:56:52;10.00;99.90
11188;DHT22;5650;52.700;7.306;2023-02-13T10:59:54;10.00;99.90
11188;DHT22;5650;52.700;7.306;2023-02-13T11:02:28;10.10;99.90
11188;DHT22;5650;52.700;7.306;2023-02-13T11:04:59;10.10;99.90
11188;DHT22;5650;52.700;7.306;2023-02-13T11:07:29;10.10;99.90
11188;DHT22;5650;52.700;7.306;2023-02-13T11:10:00;10.10;99.90
11188;DHT22;5650;52.700;7.306;2023-02-13T11:12:31;10.20;99.90
11188;DHT22;5650;52.700;7.306;2023-02-13T11:15:00;10.30;99.90
11188;DHT22;5650;52.700;7.306;2023-02-13T11:17:30;10.30;99.90
11188;DHT22;5650;52.700;7.306;2023-02-13T11:19:59;10.40;99.90
11188;DHT22;5650;52.700;7.306;2023-02-13T11:22:31;10.50;99.90
11188;DHT22;5650;52.700;7.306;2023-02-13T11:25:01;10.50;99.90
11188;DHT22;5650;52.700;7.306;2023-02-13T11:27:32;10.50;99.90
11188;DHT22;5650;52.700;7.306;2023-02-13T11:30:01;10.50;99.90
11188;DHT22;5650;52.700;7.306;2023-02-13T11:32:31;10.60;99.90
11188;DHT22;5650;52.700;7.306;2023-02-13T11:35:24;10.60;99.90
11188;DHT22;5650;52.700;7.306;2023-02-13T11:38:11;10.60;99.90
11188;DHT22;5650;52.700;7.306;2023-02-13T11:40:40;10.60;99.90
11188;DHT22;5650;52.700;7.306;2023-02-13T11:43:17;10.70;99.90
11188;DHT22;5650;52.700;7.306;2023-02-13T11:45:44;10.70;99.90
11188;DHT22;5650;52.700;7.306;2023-02-13T11:48:20;10.70;99.90
11188;DHT22;5650;52.700;7.306;2023-02-13T11:50:51;10.70;99.90
11188;DHT22;5650;52.700;7.306;2023-02-13T11:53:24;10.70;99.90
11188;DHT22;5650;52.700;7.306;2023-02-13T11:56:09;10.70;99.90
11188;DHT22;5650;52.700;7.306;2023-02-13T11:58:37;10.70;99.90
11188;DHT22;5650;52.700;7.306;2023-02-13T12:01:24;10.70;99.90
11188;DHT22;5650;52.700;7.306;2023-02-13T12:04:05;10.80;99.90
11188;DHT22;5650;52.700;7.306;2023-02-13T12:06:33;10.80;99.90
11188;DHT22;5650;52.700;7.306;2023-02-13T12:09:11;10.90;99.90
11188;DHT22;5650;52.700;7.306;2023-02-13T12:11:43;10.90;99.90
11188;DHT22;5650;52.700;7.306;2023-02-13T12:14:15;10.90;99.90
11188;DHT22;5650;52.700;7.306;2023-02-13T12:16:47;11.00;99.90
11188;DHT22;5650;52.700;7.306;2023-02-13T12:19:19;11.00;99.90
11188;DHT22;5650;52.700;7.306;2023-02-13T12:21:59;11.00;99.90
11188;DHT22;5650;52.700;7.306;2023-02-13T12:24:44;11.00;99.90
11188;DHT22;5650;52.700;7.306;2023-02-13T12:27:22;11.10;99.90
11188;DHT22;5650;52.700;7.306;2023-02-13T12:30:08;11.10;99.90
11188;DHT22;5650;52.700;7.306;2023-02-13T12:32:49;11.10;99.90
11188;DHT22;5650;52.700;7.306;2023-02-13T12:38:28;11.00;99.90
11188;DHT22;5650;52.700;7.306;2023-02-13T12:41:17;11.00;99.90
11188;DHT22;5650;52.700;7.306;2023-02-13T12:44:10;11.00;99.90
11188;DHT22;5650;52.700;7.306;2023-02-13T12:46:51;11.00;99.90
11188;DHT22;5650;52.700;7.306;2023-02-13T12:49:37;11.00;99.90
11188;DHT22;5650;52.700;7.306;2023-02-13T12:52:21;11.00;99.90
11188;DHT22;5650;52.700;7.306;2023-02-13T12:55:01;11.10;99.90
11188;DHT22;5650;52.700;7.306;2023-02-13T12:57:44;11.10;99.90
11188;DHT22;5650;52.700;7.306;2023-02-13T13:00:33;11.20;99.90
11188;DHT22;5650;52.700;7.306;2023-02-13T13:03:27;11.20;99.90
11188;DHT22;5650;52.700;7.306;2023-02-13T13:06:07;11.20;99.90
11188;DHT22;5650;52.700;7.306;2023-02-13T13:08:57;11.30;99.90
11188;DHT22;5650;52.700;7.306;2023-02-13T13:11:49;11.30;99.90
11188;DHT22;5650;52.700;7.306;2023-02-13T13:14:26;11.30;99.90
11188;DHT22;5650;52.700;7.306;2023-02-13T13:17:01;11.30;99.90
11188;DHT22;5650;52.700;7.306;2023-02-13T13:19:35;11.30;99.90
11188;DHT22;5650;52.700;7.306;2023-02-13T13:22:06;11.30;99.90
11188;DHT22;5650;52.700;7.306;2023-02-13T13:24:45;11.20;99.90
11188;DHT22;5650;52.700;7.306;2023-02-13T13:27:19;11.20;99.90
11188;DHT22;5650;52.700;7.306;2023-02-13T13:29:53;11.10;99.90
11188;DHT22;5650;52.700;7.306;2023-02-13T13:32:22;11.20;99.90
11188;DHT22;5650;52.700;7.306;2023-02-13T13:34:50;11.20;99.90
11188;DHT22;5650;52.700;7.306;2023-02-13T13:37:25;11.20;99.90
11188;DHT22;5650;52.700;7.306;2023-02-13T13:39:57;11.30;99.90
11188;DHT22;5650;52.700;7.306;2023-02-13T13:42:33;11.30;99.90
11188;DHT22;5650;52.700;7.306;2023-02-13T13:45:17;11.30;99.90
11188;DHT22;5650;52.700;7.306;2023-02-13T13:48:04;11.30;99.90
11188;DHT22;5650;52.700;7.306;2023-02-13T13:50:38;11.30;99.90
11188;DHT22;5650;52.700;7.306;2023-02-13T13:53:11;11.20;99.90
11188;DHT22;5650;52.700;7.306;2023-02-13T13:56:05;11.20;99.90
11188;DHT22;5650;52.700;7.306;2023-02-13T13:58:42;11.20;99.90
11188;DHT22;5650;52.700;7.306;2023-02-13T14:01:26;11.20;99.90
11188;DHT22;5650;52.700;7.306;2023-02-13T14:03:56;11.20;99.90
11188;DHT22;5650;52.700;7.306;2023-02-13T14:06:25;11.10;99.90
11188;DHT22;5650;52.700;7.306;2023-02-13T14:09:35;11.00;99.90
11188;DHT22;5650;52.700;7.306;2023-02-13T14:12:35;10.90;99.90
11188;DHT22;5650;52.700;7.306;2023-02-13T14:15:03;10.90;99.90
11188;DHT22;5650;52.700;7.306;2023-02-13T14:17:52;10.90;99.90
11188;DHT22;5650;52.700;7.306;2023-02-13T14:20:34;10.90;99.90
11188;DHT22;5650;52.700;7.306;2023-02-13T14:23:12;10.90;99.90
11188;DHT22;5650;52.700;7.306;2023-02-13T14:25:40;10.90;99.90
11188;DHT22;5650;52.700;7.306;2023-02-13T14:28:20;10.90;99.90
11188;DHT22;5650;52.700;7.306;2023-02-13T14:30:49;10.80;99.90
11188;DHT22;5650;52.700;7.306;2023-02-13T14:33:24;10.80;99.90
11188;DHT22;5650;52.700;7.306;2023-02-13T14:36:01;10.80;99.90
11188;DHT22;5650;52.700;7.306;2023-02-13T14:38:29;10.70;99.90
11188;DHT22;5650;52.700;7.306;2023-02-13T14:40:57;10.60;99.90
11188;DHT22;5650;52.700;7.306;2023-02-13T14:43:33;10.70;99.90
11188;DHT22;5650;52.700;7.306;2023-02-13T14:46:07;10.70;99.90
11188;DHT22;5650;52.700;7.306;2023-02-13T14:48:41;10.60;99.90
11188;DHT22;5650;52.700;7.306;2023-02-13T14:51:16;10.60;99.90
11188;DHT22;5650;52.700;7.306;2023-02-13T14:53:57;10.60;99.90
11188;DHT22;5650;52.700;7.306;2023-02-13T14:56:26;10.50;99.90
11188;DHT22;5650;52.700;7.306;2023-02-13T14:58:57;10.50;99.90
11188;DHT22;5650;52.700;7.306;2023-02-13T15:01:31;10.40;99.90
11188;DHT22;5650;52.700;7.306;2023-02-13T15:04:05;10.40;99.90
11188;DHT22;5650;52.700;7.306;2023-02-13T15:06:35;10.40;99.90
11188;DHT22;5650;52.700;7.306;2023-02-13T15:09:15;10.40;99.90
11188;DHT22;5650;52.700;7.306;2023-02-13T15:11:44;10.40;99.90
11188;DHT22;5650;52.700;7.306;2023-02-13T15:14:30;10.40;99.90
11188;DHT22;5650;52.700;7.306;2023-02-13T15:17:06;10.40;99.90
11188;DHT22;5650;52.700;7.306;2023-02-13T15:19:43;10.40;99.90
11188;DHT22;5650;52.700;7.306;2023-02-13T15:22:17;10.40;99.90
11188;DHT22;5650;52.700;7.306;2023-02-13T15:24:46;10.40;99.90
11188;DHT22;5650;52.700;7.306;2023-02-13T15:27:18;10.40;99.90
11188;DHT22;5650;52.700;7.306;2023-02-13T15:29:55;10.30;99.90
11188;DHT22;5650;52.700;7.306;2023-02-13T15:32:27;10.30;99.90
11188;DHT22;5650;52.700;7.306;2023-02-13T15:34:56;10.20;99.90
11188;DHT22;5650;52.700;7.306;2023-02-13T15:37:26;10.20;99.90
11188;DHT22;5650;52.700;7.306;2023-02-13T15:39:54;10.20;99.90
11188;DHT22;5650;52.700;7.306;2023-02-13T15:42:21;10.10;99.90
11188;DHT22;5650;52.700;7.306;2023-02-13T15:44:57;10.10;99.90
11188;DHT22;5650;52.700;7.306;2023-02-13T15:47:28;10.10;99.90
11188;DHT22;5650;52.700;7.306;2023-02-13T15:49:58;10.10;99.90
11188;DHT22;5650;52.700;7.306;2023-02-13T15:52:29;10.00;99.90
11188;DHT22;5650;52.700;7.306;2023-02-13T15:54:58;10.00;99.90
11188;DHT22;5650;52.700;7.306;2023-02-13T15:57:26;10.00;99.90
11188;DHT22;5650;52.700;7.306;2023-02-13T15:59:54;9.90;99.90
11188;DHT22;5650;52.700;7.306;2023-02-13T16:02:36;9.90;99.90
11188;DHT22;5650;52.700;7.306;2023-02-13T16:05:10;9.90;99.90
11188;DHT22;5650;52.700;7.306;2023-02-13T16:07:48;9.80;99.90
11188;DHT22;5650;52.700;7.306;2023-02-13T16:10:17;9.80;99.90
11188;DHT22;5650;52.700;7.306;2023-02-13T16:12:50;9.70;99.90
11188;DHT22;5650;52.700;7.306;2023-02-13T16:15:19;9.70;99.90
11188;DHT22;5650;52.700;7.306;2023-02-13T16:17:47;9.60;99.90
11188;DHT22;5650;52.700;7.306;2023-02-13T16:20:21;9.60;99.90
11188;DHT22;5650;52.700;7.306;2023-02-13T16:22:51;9.50;99.90
11188;DHT22;5650;52.700;7.306;2023-02-13T16:25:23;9.50;99.90
11188;DHT22;5650;52.700;7.306;2023-02-13T16:27:52;9.40;99.90
11188;DHT22;5650;52.700;7.306;2023-02-13T16:30:29;9.40;99.90
11188;DHT22;5650;52.700;7.306;2023-02-13T16:33:21;9.30;99.90
11188;DHT22;5650;52.700;7.306;2023-02-13T16:35:51;9.20;99.90
11188;DHT22;5650;52.700;7.306;2023-02-13T16:38:29;9.20;99.90
11188;DHT22;5650;52.700;7.306;2023-02-13T16:40:58;9.10;99.90
11188;DHT22;5650;52.700;7.306;2023-02-13T16:43:44;9.10;99.90
11188;DHT22;5650;52.700;7.306;2023-02-13T16:46:33;9.00;99.90